createdAt,value
2022-08-25T00:01:55.923Z,101573.47
2022-08-25T00:04:24.103Z,101571.34
2022-08-25T00:06:52.248Z,101563.47
2022-08-25T00:09:22.877Z,101560.06
2022-08-25T00:11:51.198Z,101553.04
2022-08-25T00:14:35.496Z,101562.59
2022-08-25T00:17:05.752Z,101563.04
2022-08-25T00:19:36.857Z,101567.42
2022-08-25T00:22:05.114Z,101569.48
2022-08-25T00:24:39.152Z,101566.18
2022-08-25T00:27:07.540Z,101568.96
2022-08-25T00:29:35.944Z,101564.05
2022-08-25T00:32:04.327Z,101562.42
2022-08-25T00:34:35.577Z,101565.69
2022-08-25T00:37:08.816Z,101560.62
2022-08-25T00:39:36.945Z,101561.90
2022-08-25T00:42:11.714Z,101561.47
2022-08-25T00:44:48.872Z,101564.74
2022-08-25T00:47:17.210Z,101558.40
2022-08-25T00:49:51.562Z,101548.39
2022-08-25T00:52:49.740Z,101557.05
2022-08-25T00:55:27.229Z,101553.27
2022-08-25T00:58:21.659Z,101556.90
2022-08-25T01:00:52.312Z,101548.88
2022-08-25T01:03:20.655Z,101562.16
2022-08-25T01:05:51.929Z,101564.58
2022-08-25T01:08:22.305Z,101564.91
2022-08-25T01:10:50.602Z,101567.45
2022-08-25T01:13:49.340Z,101571.48
2022-08-25T01:16:17.481Z,101562.03
2022-08-25T01:18:54.035Z,101566.93
2022-08-25T01:21:23.672Z,101578.90
2022-08-25T01:23:52.138Z,101570.98
2022-08-25T01:26:25.125Z,101577.95
2022-08-25T01:29:17.845Z,101565.56
2022-08-25T01:31:46.321Z,101570.89
2022-08-25T01:34:14.287Z,101570.89
2022-08-25T01:36:42.656Z,101569.16
2022-08-25T01:39:11.468Z,101567.48
2022-08-25T01:42:06.766Z,101560.33
2022-08-25T01:44:37.104Z,101565.69
2022-08-25T01:47:05.289Z,101570.13
2022-08-25T01:49:34.057Z,101565.59
2022-08-25T01:52:03.998Z,101570.56
2022-08-25T01:54:31.870Z,101565.23
2022-08-25T01:57:00.104Z,101568.11
2022-08-25T01:59:27.929Z,101567.65
2022-08-25T02:02:00.185Z,101567.62
2022-08-25T02:04:33.335Z,101570.43
2022-08-25T02:07:03.103Z,101560.88
2022-08-25T02:09:31.013Z,101567.48
2022-08-25T02:11:58.838Z,101559.54
2022-08-25T02:14:26.627Z,101555.78
2022-08-25T02:16:55.331Z,101547.51
2022-08-25T02:19:24.750Z,101548.75
2022-08-25T02:21:55.908Z,101548.59
2022-08-25T02:24:23.674Z,101550.20
2022-08-25T02:26:51.748Z,101553.49
2022-08-25T02:29:19.953Z,101554.64
2022-08-25T02:31:48.119Z,101550.91
2022-08-25T02:34:16.383Z,101550.09
2022-08-25T02:36:44.946Z,101557.94
2022-08-25T02:39:13.401Z,101550.03
2022-08-25T02:41:41.314Z,101549.11
2022-08-25T02:44:09.472Z,101545.78
2022-08-25T02:46:37.593Z,101558.63
2022-08-25T02:49:06.766Z,101564.28
2022-08-25T02:51:35.362Z,101560.49
2022-08-25T02:54:03.745Z,101557.05
2022-08-25T02:56:31.914Z,101549.77
2022-08-25T02:59:01.273Z,101553.10
2022-08-25T03:01:30.235Z,101551.76
2022-08-25T03:03:58.305Z,101553.73
2022-08-25T03:06:27.391Z,101552.84
2022-08-25T03:08:55.813Z,101553.30
2022-08-25T03:11:24.295Z,101554.93
2022-08-25T03:13:52.422Z,101554.57
2022-08-25T03:16:20.594Z,101551.99
2022-08-25T03:18:48.608Z,101555.65
2022-08-25T03:21:17.134Z,101555.52
2022-08-25T03:23:45.928Z,101553.46
2022-08-25T03:26:33.742Z,101549.21
2022-08-25T03:29:02.364Z,101547.51
2022-08-25T03:31:30.464Z,101545.87
2022-08-25T03:33:58.323Z,101537.96
2022-08-25T03:36:26.726Z,101537.48
2022-08-25T03:38:54.751Z,101536.20
2022-08-25T03:41:29.094Z,101533.68
2022-08-25T03:43:57.839Z,101542.73
2022-08-25T03:46:27.827Z,101543.95
2022-08-25T03:48:55.883Z,101547.67
2022-08-25T03:51:25.074Z,101549.70
2022-08-25T03:53:54.057Z,101560.52
2022-08-25T03:56:21.881Z,101558.56
2022-08-25T03:58:49.903Z,101563.95
2022-08-25T04:01:18.322Z,101560.06
2022-08-25T04:03:46.764Z,101561.15
2022-08-25T04:06:14.970Z,101561.44
2022-08-25T04:08:42.840Z,101562.59
2022-08-25T04:11:11.501Z,101565.46
2022-08-25T04:13:39.367Z,101571.18
2022-08-25T04:16:22.490Z,101571.94
2022-08-25T04:18:50.786Z,101571.94
2022-08-25T04:21:19.511Z,101573.47
2022-08-25T04:23:49.202Z,101570.17
2022-08-25T04:26:22.346Z,101571.77
2022-08-25T04:28:50.629Z,101575.04
2022-08-25T04:31:19.567Z,101573.47
2022-08-25T04:33:50.079Z,101574.23
2022-08-25T04:36:18.262Z,101572.59
2022-08-25T04:38:47.251Z,101573.90
2022-08-25T04:41:15.945Z,101572.91
2022-08-25T04:43:45.126Z,101573.27
2022-08-25T04:46:23.963Z,101572.10
2022-08-25T04:48:52.929Z,101573.27
2022-08-25T04:51:25.011Z,101577.76
2022-08-25T04:53:53.114Z,101569.48
2022-08-25T04:56:23.522Z,101573.27
2022-08-25T04:58:52.379Z,101567.12
2022-08-25T05:01:23.526Z,101559.51
2022-08-25T05:04:02.982Z,101572.66
2022-08-25T05:06:31.410Z,101564.94
2022-08-25T05:09:00.264Z,101558.40
2022-08-25T05:11:30.050Z,101564.19
2022-08-25T05:14:01.935Z,101565.85
2022-08-25T05:16:30.278Z,101560.06
2022-08-25T05:18:58.307Z,101562.55
2022-08-25T05:21:28.704Z,101557.71
2022-08-25T05:23:58.679Z,101561.15
2022-08-25T05:26:27.600Z,101557.52
2022-08-25T05:28:55.879Z,101555.06
2022-08-25T05:31:24.574Z,101551.80
2022-08-25T05:33:53.048Z,101548.59
2022-08-25T05:36:21.366Z,101556.96
2022-08-25T05:38:49.239Z,101557.84
2022-08-25T05:41:19.526Z,101556.73
2022-08-25T05:43:49.866Z,101549.41
2022-08-25T05:46:19.060Z,101544.57
2022-08-25T05:48:48.434Z,101545.09
2022-08-25T05:51:17.038Z,101547.28
2022-08-25T05:53:46.322Z,101552.35
2022-08-25T05:56:15.448Z,101546.73
2022-08-25T05:58:43.802Z,101552.64
2022-08-25T06:01:30.759Z,101556.90
2022-08-25T06:03:58.665Z,101551.63
2022-08-25T06:06:27.506Z,101556.70
2022-08-25T06:08:55.364Z,101558.04
2022-08-25T06:11:23.325Z,101556.50
2022-08-25T06:13:51.194Z,101552.88
2022-08-25T06:16:19.751Z,101562.48
2022-08-25T06:18:47.570Z,101557.26
2022-08-25T06:21:21.543Z,101558.30
2022-08-25T06:23:51.430Z,101556.73
2022-08-25T06:26:21.773Z,101560.95
2022-08-25T06:28:52.333Z,101556.60
2022-08-25T06:31:21.528Z,101551.27
2022-08-25T06:33:49.468Z,101545.98
2022-08-25T06:36:17.252Z,101539.47
2022-08-25T06:38:45.624Z,101541.66
2022-08-25T06:41:13.839Z,101539.66
2022-08-25T06:43:48.143Z,101533.95
2022-08-25T06:46:20.261Z,101529.95
2022-08-25T06:48:48.702Z,101527.89
2022-08-25T06:51:18.091Z,101531.72
2022-08-25T06:53:47.443Z,101536.72
2022-08-25T06:56:15.931Z,101535.94
2022-08-25T06:58:43.766Z,101544.66
2022-08-25T07:01:28.030Z,101537.31
2022-08-25T07:04:00.657Z,101530.38
2022-08-25T07:06:29.819Z,101537.48
2022-08-25T07:08:57.634Z,101531.69
2022-08-25T07:11:25.493Z,101528.35
2022-08-25T07:13:53.767Z,101525.90
2022-08-25T07:16:21.933Z,101528.02
2022-08-25T07:18:50.309Z,101519.00
2022-08-25T07:21:20.656Z,101521.19
2022-08-25T07:23:50.939Z,101530.25
2022-08-25T07:26:39.327Z,101526.91
2022-08-25T07:29:15.831Z,101519.10
2022-08-25T07:31:43.771Z,101515.53
2022-08-25T07:34:30.288Z,101516.05
2022-08-25T07:36:58.141Z,101513.64
2022-08-25T07:39:26.494Z,101518.22
2022-08-25T07:41:56.791Z,101517.43
2022-08-25T07:44:25.016Z,101520.44
2022-08-25T07:46:56.156Z,101516.74
2022-08-25T07:49:24.570Z,101522.23
2022-08-25T07:52:04.390Z,101522.73
2022-08-25T07:54:35.142Z,101522.40
2022-08-25T07:57:06.661Z,101514.16
2022-08-25T07:59:38.920Z,101512.95
2022-08-25T08:02:16.077Z,101503.47
2022-08-25T08:04:50.425Z,101508.14
2022-08-25T08:07:43.145Z,101500.69
2022-08-25T08:13:01.044Z,101507.00
2022-08-25T08:15:29.891Z,101521.98
2022-08-25T08:17:58.175Z,101529.49
2022-08-25T08:20:27.248Z,101521.59
2022-08-25T08:22:55.214Z,101516.22
2022-08-25T08:25:26.548Z,101524.95
2022-08-25T08:27:55.615Z,101525.41
2022-08-25T08:30:26.468Z,101532.05
2022-08-25T08:33:11.265Z,101537.48
2022-08-25T08:35:41.117Z,101535.38
2022-08-25T08:38:18.492Z,101525.41
2022-08-25T08:42:07.703Z,101525.37
2022-08-25T08:44:43.793Z,101527.08
2022-08-25T08:47:33.517Z,101529.95
2022-08-25T08:50:06.151Z,101523.28
2022-08-25T08:52:44.856Z,101529.10
2022-08-25T08:55:39.237Z,101527.83
2022-08-25T08:58:33.119Z,101529.46
2022-08-25T09:01:02.919Z,101525.27
2022-08-25T09:03:41.033Z,101522.76
2022-08-25T09:06:19.650Z,101522.27
2022-08-25T09:08:47.525Z,101521.75
2022-08-25T09:11:37.799Z,101525.05
2022-08-25T09:14:05.629Z,101518.77
2022-08-25T09:16:58.431Z,101523.71
2022-08-25T09:19:44.964Z,101522.83
2022-08-25T09:22:34.031Z,101522.66
2022-08-25T09:25:22.027Z,101522.11
2022-08-25T09:27:57.547Z,101520.73
2022-08-25T09:30:27.595Z,101534.01
2022-08-25T09:33:05.178Z,101525.18
2022-08-25T09:35:35.761Z,101527.20
2022-08-25T09:38:10.559Z,101534.14
2022-08-25T09:40:42.530Z,101526.81
2022-08-25T09:43:20.694Z,101526.65
2022-08-25T09:46:03.621Z,101528.77
2022-08-25T09:48:41.040Z,101529.59
2022-08-25T09:51:23.035Z,101526.09
2022-08-25T09:54:10.686Z,101526.32
2022-08-25T09:56:48.167Z,101535.09
2022-08-25T09:59:21.268Z,101522.83
2022-08-25T10:02:04.528Z,101522.43
2022-08-25T10:04:40.301Z,101513.12
2022-08-25T10:07:31.069Z,101511.77
2022-08-25T10:10:03.821Z,101510.70
2022-08-25T10:12:35.053Z,101508.80
2022-08-25T10:15:29.126Z,101504.05
2022-08-25T10:17:58.735Z,101501.45
2022-08-25T10:20:35.339Z,101496.38
2022-08-25T10:23:14.568Z,101491.77
2022-08-25T10:25:59.201Z,101489.57
2022-08-25T10:29:00.816Z,101492.19
2022-08-25T10:31:38.003Z,101483.66
2022-08-25T10:34:32.482Z,101484.96
2022-08-25T10:37:18.974Z,101486.99
2022-08-25T10:39:56.279Z,101482.70
2022-08-25T10:42:31.895Z,101473.32
2022-08-25T10:45:42.375Z,101481.20
2022-08-25T10:48:34.568Z,101474.89
2022-08-25T10:51:25.689Z,101470.38
2022-08-25T10:54:06.265Z,101474.47
2022-08-25T10:56:40.327Z,101462.50
2022-08-25T10:59:17.820Z,101465.38
2022-08-25T11:02:13.049Z,101464.85
2022-08-25T11:04:50.289Z,101449.91
2022-08-25T11:07:47.548Z,101447.55
2022-08-25T11:10:50.422Z,101448.44
2022-08-25T11:13:38.907Z,101452.04
2022-08-25T11:16:38.235Z,101441.15
2022-08-25T11:19:28.114Z,101437.72
2022-08-25T11:22:13.711Z,101435.16
2022-08-25T11:25:07.951Z,101436.84
2022-08-25T11:27:44.446Z,101436.31
2022-08-25T11:30:15.868Z,101434.94
2022-08-25T11:32:46.500Z,101428.62
2022-08-25T11:35:15.510Z,101427.09
2022-08-25T11:38:07.101Z,101426.89
2022-08-25T11:40:39.950Z,101428.30
2022-08-25T11:43:14.204Z,101423.04
2022-08-25T11:46:05.228Z,101415.98
2022-08-25T11:48:56.216Z,101413.59
2022-08-25T11:51:43.352Z,101412.15
2022-08-25T11:54:26.416Z,101410.38
2022-08-25T11:56:57.956Z,101407.90
2022-08-25T11:59:50.536Z,101404.59
2022-08-25T12:02:49.986Z,101415.12
2022-08-25T12:05:20.494Z,101402.27
2022-08-25T12:07:48.244Z,101406.46
2022-08-25T12:10:23.587Z,101404.27
2022-08-25T12:12:59.777Z,101407.67
2022-08-25T12:15:35.927Z,101400.73
2022-08-25T12:18:12.975Z,101398.12
2022-08-25T12:20:57.317Z,101405.87
2022-08-25T12:23:44.904Z,101394.62
2022-08-25T12:26:28.507Z,101403.91
2022-08-25T12:29:08.237Z,101392.76
2022-08-25T12:32:03.197Z,101397.37
2022-08-25T12:35:13.069Z,101393.48
2022-08-25T12:38:07.451Z,101401.39
2022-08-25T12:40:45.405Z,101393.74
2022-08-25T12:43:42.231Z,101393.02
2022-08-25T12:46:26.915Z,101386.97
2022-08-25T12:48:57.749Z,101388.15
2022-08-25T12:51:27.754Z,101385.44
2022-08-25T12:54:19.095Z,101374.29
2022-08-25T12:56:58.961Z,101377.39
2022-08-25T12:59:32.581Z,101373.77
2022-08-25T13:02:07.062Z,101380.56
2022-08-25T13:04:53.629Z,101369.28
2022-08-25T13:07:53.733Z,101368.95
2022-08-25T13:10:26.893Z,101366.87
2022-08-25T13:13:25.245Z,101370.40
2022-08-25T13:16:02.639Z,101370.85
2022-08-25T13:18:32.990Z,101365.78
2022-08-25T13:21:20.059Z,101368.59
2022-08-25T13:23:49.966Z,101363.27
2022-08-25T13:26:26.367Z,101364.70
2022-08-25T13:29:17.629Z,101359.73
2022-08-25T13:32:09.488Z,101354.44
2022-08-25T13:34:42.818Z,101350.74
2022-08-25T13:37:31.269Z,101344.73
2022-08-25T13:40:13.891Z,101349.66
2022-08-25T13:42:44.287Z,101348.85
2022-08-25T13:45:16.712Z,101343.62
2022-08-25T13:47:45.750Z,101340.48
2022-08-25T13:50:27.183Z,101337.73
2022-08-25T13:52:56.507Z,101340.55
2022-08-25T13:55:50.898Z,101339.46
2022-08-25T13:58:24.214Z,101339.59
2022-08-25T14:01:22.805Z,101332.11
2022-08-25T14:04:22.138Z,101324.09
2022-08-25T14:06:50.204Z,101329.23
2022-08-25T14:09:28.078Z,101331.23
2022-08-25T14:11:59.636Z,101327.92
2022-08-25T14:14:27.348Z,101326.74
2022-08-25T14:17:21.922Z,101325.73
2022-08-25T14:19:55.527Z,101317.82
2022-08-25T14:22:23.297Z,101319.62
2022-08-25T14:24:51.087Z,101317.00
2022-08-25T14:27:20.353Z,101317.98
2022-08-25T14:29:52.593Z,101322.10
2022-08-25T14:32:20.683Z,101318.34
2022-08-25T14:34:48.442Z,101320.47
2022-08-25T14:37:18.276Z,101317.43
2022-08-25T14:39:47.143Z,101314.16
2022-08-25T14:42:15.596Z,101308.05
2022-08-25T14:44:43.451Z,101312.69
2022-08-25T14:47:11.229Z,101301.96
2022-08-25T14:49:41.553Z,101300.66
2022-08-25T14:52:11.191Z,101300.63
2022-08-25T14:54:40.720Z,101295.59
2022-08-25T14:57:09.192Z,101296.63
2022-08-25T14:59:37.013Z,101295.42
2022-08-25T15:02:11.054Z,101294.97
2022-08-25T15:04:39.274Z,101297.38
2022-08-25T15:07:30.356Z,101295.59
2022-08-25T15:09:59.250Z,101291.20
2022-08-25T15:12:46.561Z,101284.57
2022-08-25T15:15:15.480Z,101287.34
2022-08-25T15:17:44.680Z,101287.97
2022-08-25T15:20:12.706Z,101284.53
2022-08-25T15:22:43.219Z,101276.49
2022-08-25T15:25:11.831Z,101286.04
2022-08-25T15:27:39.634Z,101275.87
2022-08-25T15:30:08.040Z,101272.38
2022-08-25T15:32:35.768Z,101276.30
2022-08-25T15:35:03.669Z,101276.39
2022-08-25T15:37:32.542Z,101281.07
2022-08-25T15:40:01.010Z,101278.32
2022-08-25T15:42:28.977Z,101267.86
2022-08-25T15:44:57.234Z,101272.99
2022-08-25T15:47:25.336Z,101271.45
2022-08-25T15:50:00.734Z,101263.58
2022-08-25T15:52:44.549Z,101265.84
2022-08-25T15:55:14.716Z,101260.96
2022-08-25T15:57:42.536Z,101266.55
2022-08-25T16:00:16.583Z,101261.16
2022-08-25T16:02:46.401Z,101257.46
2022-08-25T16:05:16.358Z,101258.02
2022-08-25T16:07:51.542Z,101251.38
2022-08-25T16:10:19.844Z,101249.35
2022-08-25T16:12:48.155Z,101256.58
2022-08-25T16:15:17.196Z,101249.52
2022-08-25T16:17:51.060Z,101252.55
2022-08-25T16:20:19.449Z,101248.02
2022-08-25T16:22:47.786Z,101243.47
2022-08-25T16:25:15.905Z,101243.53
2022-08-25T16:27:45.266Z,101245.27
2022-08-25T16:30:17.462Z,101239.48
2022-08-25T16:32:46.027Z,101237.45
2022-08-25T16:35:14.447Z,101236.34
2022-08-25T16:37:42.717Z,101233.04
2022-08-25T16:40:14.602Z,101224.77
2022-08-25T16:42:42.594Z,101228.59
2022-08-25T16:45:10.717Z,101224.93
2022-08-25T16:47:39.112Z,101222.51
2022-08-25T16:50:08.684Z,101221.37
2022-08-25T16:52:58.279Z,101224.47
2022-08-25T16:55:27.672Z,101220.88
2022-08-25T16:57:55.641Z,101218.98
2022-08-25T17:00:25.924Z,101216.49
2022-08-25T17:03:00.352Z,101218.23
2022-08-25T17:05:29.838Z,101216.20
2022-08-25T17:08:18.808Z,101210.77
2022-08-25T17:10:46.829Z,101209.95
2022-08-25T17:13:14.764Z,101215.88
2022-08-25T17:15:43.878Z,101208.42
2022-08-25T17:18:13.878Z,101217.67
2022-08-25T17:20:44.452Z,101216.46
2022-08-25T17:23:13.069Z,101206.95
2022-08-25T17:25:42.921Z,101216.63
2022-08-25T17:28:12.092Z,101213.78
2022-08-25T17:30:40.446Z,101209.70
2022-08-25T17:33:08.286Z,101215.16
2022-08-25T17:35:43.044Z,101216.43
2022-08-25T17:38:10.976Z,101216.04
2022-08-25T17:40:39.053Z,101219.86
2022-08-25T17:43:09.027Z,101219.11
2022-08-25T17:45:38.119Z,101219.53
2022-08-25T17:48:08.214Z,101230.09
2022-08-25T17:50:37.218Z,101226.34
2022-08-25T17:53:06.703Z,101233.07
2022-08-25T17:55:34.923Z,101226.89
2022-08-25T17:58:04.152Z,101238.66
2022-08-25T18:00:33.414Z,101228.30
2022-08-25T18:03:02.972Z,101232.09
2022-08-25T18:05:30.885Z,101230.45
2022-08-25T18:07:58.718Z,101231.83
2022-08-25T18:10:27.248Z,101235.36
2022-08-25T18:12:55.333Z,101247.06
2022-08-25T18:15:23.198Z,101240.04
2022-08-25T18:17:51.544Z,101241.73
2022-08-25T18:20:20.601Z,101240.10
2022-08-25T18:22:48.396Z,101243.47
2022-08-25T18:25:16.798Z,101246.05
2022-08-25T18:27:44.764Z,101236.14
2022-08-25T18:30:13.158Z,101245.34
2022-08-25T18:32:41.669Z,101239.61
2022-08-25T18:35:16.255Z,101246.45
2022-08-25T18:38:08.750Z,101251.48
2022-08-25T18:40:36.905Z,101244.45
2022-08-25T18:43:07.032Z,101249.98
2022-08-25T18:45:49.073Z,101259.23
2022-08-25T18:48:18.223Z,101256.41
2022-08-25T18:50:50.610Z,101261.91
2022-08-25T18:53:30.706Z,101261.48
2022-08-25T18:56:06.151Z,101256.48
2022-08-25T18:58:34.148Z,101261.52
2022-08-25T19:01:05.128Z,101262.79
2022-08-25T19:03:33.104Z,101274.92
2022-08-25T19:06:01.232Z,101264.52
2022-08-25T19:08:29.689Z,101267.04
2022-08-25T19:10:57.663Z,101270.38
2022-08-25T19:13:25.547Z,101269.20
2022-08-25T19:15:53.673Z,101271.29
2022-08-25T19:18:26.190Z,101269.23
2022-08-25T19:20:57.459Z,101266.81
2022-08-25T19:23:26.991Z,101269.76
2022-08-25T19:25:54.775Z,101269.01
2022-08-25T19:28:24.026Z,101269.10
2022-08-25T19:30:52.146Z,101267.01
2022-08-25T19:33:42.731Z,101267.92
2022-08-25T19:36:08.468Z,101273.38
2022-08-25T19:38:37.130Z,101270.54
2022-08-25T19:41:09.421Z,101269.33
2022-08-25T19:43:50.592Z,101276.00
2022-08-25T19:46:25.740Z,101268.97
2022-08-25T19:49:06.944Z,101266.98
2022-08-25T19:51:36.558Z,101269.49
2022-08-25T19:54:05.394Z,101269.95
2022-08-25T19:56:36.477Z,101264.20
2022-08-25T19:59:04.903Z,101273.38
2022-08-25T20:01:33.023Z,101272.60
2022-08-25T20:04:02.031Z,101273.05
2022-08-25T20:06:35.382Z,101274.73
2022-08-25T20:09:03.274Z,101271.88
2022-08-25T20:11:34.334Z,101271.09
2022-08-25T20:14:04.013Z,101274.82
2022-08-25T20:16:32.033Z,101279.47
2022-08-25T20:19:01.366Z,101272.41
2022-08-25T20:21:31.718Z,101276.16
2022-08-25T20:24:18.306Z,101274.92
2022-08-25T20:26:46.348Z,101272.44
2022-08-25T20:29:14.205Z,101273.71
2022-08-25T20:31:42.060Z,101273.35
2022-08-25T20:34:17.448Z,101282.51
2022-08-25T20:36:50.237Z,101284.60
2022-08-25T20:39:19.086Z,101286.27
2022-08-25T20:41:48.263Z,101290.45
2022-08-25T20:44:17.323Z,101285.05
2022-08-25T20:46:45.654Z,101286.73
2022-08-25T20:49:14.779Z,101289.63
2022-08-25T20:51:43.007Z,101286.34
2022-08-25T20:54:14.107Z,101289.24
2022-08-25T20:56:42.658Z,101286.37
2022-08-25T20:59:11.652Z,101291.34
2022-08-25T21:01:40.555Z,101291.80
2022-08-25T21:04:11.033Z,101289.70
2022-08-25T21:06:42.346Z,101289.27
2022-08-25T21:09:15.626Z,101299.67
2022-08-25T21:11:43.885Z,101289.27
2022-08-25T21:14:13.894Z,101299.28
2022-08-25T21:16:42.222Z,101294.31
2022-08-25T21:19:11.076Z,101299.28
2022-08-25T21:21:40.108Z,101310.92
2022-08-25T21:24:10.044Z,101296.83
2022-08-25T21:26:47.610Z,101308.41
2022-08-25T21:29:16.847Z,101302.62
2022-08-25T21:31:44.692Z,101304.71
2022-08-25T21:34:12.909Z,101313.41
2022-08-25T21:36:40.985Z,101303.86
2022-08-25T21:39:08.849Z,101304.28
2022-08-25T21:41:37.280Z,101318.37
2022-08-25T21:44:05.490Z,101307.20
2022-08-25T21:46:33.578Z,101308.41
2022-08-25T21:49:06.120Z,101309.68
2022-08-25T21:51:40.940Z,101308.41
2022-08-25T21:54:10.706Z,101310.07
2022-08-25T21:56:46.210Z,101310.85
2022-08-25T21:59:16.055Z,101307.95
2022-08-25T22:01:44.000Z,101313.77
2022-08-25T22:04:12.425Z,101317.07
2022-08-25T22:06:40.228Z,101315.40
2022-08-25T22:09:08.886Z,101313.73
2022-08-25T22:11:36.769Z,101314.98
2022-08-25T22:14:04.680Z,101313.27
2022-08-25T22:16:35.916Z,101309.97
2022-08-25T22:19:05.174Z,101308.30
2022-08-25T22:21:33.822Z,101309.13
2022-08-25T22:24:01.816Z,101306.60
2022-08-25T22:26:31.629Z,101309.94
2022-08-25T22:28:59.929Z,101307.03
2022-08-25T22:31:28.573Z,101306.15
2022-08-25T22:33:57.711Z,101309.05
2022-08-25T22:36:27.944Z,101313.21
2022-08-25T22:38:55.898Z,101309.05
2022-08-25T22:41:24.277Z,101316.09
2022-08-25T22:43:53.304Z,101314.42
2022-08-25T22:46:21.768Z,101315.23
2022-08-25T22:48:50.368Z,101319.36
2022-08-25T22:51:21.148Z,101318.51
2022-08-25T22:53:49.605Z,101318.48
2022-08-25T22:56:19.626Z,101322.59
2022-08-25T22:58:51.798Z,101313.44
2022-08-25T23:01:20.840Z,101324.23
2022-08-25T23:03:48.747Z,101316.31
2022-08-25T23:06:24.440Z,101322.92
2022-08-25T23:08:54.236Z,101310.89
2022-08-25T23:11:22.452Z,101315.04
2022-08-25T23:13:50.380Z,101309.65
2022-08-25T23:16:18.269Z,101313.34
2022-08-25T23:18:47.907Z,101309.61
2022-08-25T23:21:38.195Z,101309.16
2022-08-25T23:24:10.749Z,101301.27
2022-08-25T23:26:42.683Z,101299.18
2022-08-25T23:29:18.784Z,101304.61
2022-08-25T23:31:47.786Z,101300.82
2022-08-25T23:34:16.456Z,101293.76
2022-08-25T23:36:44.809Z,101298.34
2022-08-25T23:39:12.581Z,101292.91
2022-08-25T23:41:41.174Z,101287.55
2022-08-25T23:44:11.677Z,101287.91
2022-08-25T23:46:39.829Z,101285.81
2022-08-25T23:49:09.333Z,101284.53
2022-08-25T23:51:38.565Z,101276.23
2022-08-25T23:54:10.632Z,101279.11
2022-08-25T23:56:42.343Z,101272.08
2022-08-25T23:59:18.756Z,101267.47
